Time;durP1;ratioP1;P1;durP2;ratioP2;P2;SDS_P1;SDS_P2;PMS_P1;PMS_P2;Temp;Humidity;BMP_temperature;BMP_pressure;BME280_temperature;BME280_humidity;BME280_pressure;Samples;Min_cycle;Max_cycle;Signal;HPM_P1;HPM_P2
2023/12/21 00:01:46;;;;;;;0.80;0.80;;;11.10;99.90;;;;;;5074056;28;20021;-70
2023/12/21 00:04:12;;;;;;;0.52;0.43;;;11.10;99.90;;;;;;5074904;28;20486;-69
2023/12/21 00:06:39;;;;;;;0.15;0.15;;;11.20;99.90;;;;;;5075084;28;20040;-69
2023/12/21 00:09:06;;;;;;;1.10;0.57;;;11.20;99.90;;;;;;5075093;28;20032;-70
2023/12/21 00:11:33;;;;;;;1.58;0.43;;;11.10;99.90;;;;;;5074822;28;20033;-69
2023/12/21 00:13:59;;;;;;;0.55;0.47;;;11.10;99.90;;;;;;5075191;28;20473;-70
2023/12/21 00:16:25;;;;;;;0.90;0.47;;;11.10;99.90;;;;;;5090356;28;20107;-70
2023/12/21 00:18:51;;;;;;;4.65;0.98;;;11.10;99.90;;;;;;5074874;28;20063;-70
2023/12/21 00:21:16;;;;;;;2.05;0.82;;;11.00;99.90;;;;;;5074552;28;20450;-70
2023/12/21 00:23:42;;;;;;;0.17;0.17;;;11.10;99.90;;;;;;5074748;28;20025;-70
2023/12/21 00:26:09;;;;;;;4.35;1.30;;;11.10;99.90;;;;;;5074794;28;20107;-69
2023/12/21 00:28:36;;;;;;;3.20;1.55;;;11.10;99.90;;;;;;5074697;28;20040;-69
2023/12/21 00:31:02;;;;;;;10.27;0.68;;;11.00;99.90;;;;;;5074495;28;20100;-68
2023/12/21 00:33:29;;;;;;;2.38;0.95;;;11.10;99.90;;;;;;5074379;28;20079;-69
2023/12/21 00:35:54;;;;;;;0.60;0.20;;;11.10;99.90;;;;;;5074541;28;20393;-70
2023/12/21 00:38:21;;;;;;;0.88;0.65;;;11.10;99.90;;;;;;5074589;28;20045;-69
2023/12/21 00:40:47;;;;;;;4.25;1.50;;;11.10;99.90;;;;;;5074190;28;20025;-70
2023/12/21 00:43:12;;;;;;;0.17;0.17;;;11.10;99.90;;;;;;5074664;28;20489;-69
2023/12/21 00:45:38;;;;;;;0.55;0.38;;;11.00;99.90;;;;;;5074274;28;20393;-69
2023/12/21 00:48:04;;;;;;;5.10;1.67;;;11.10;99.90;;;;;;5074074;28;20036;-69
2023/12/21 00:50:30;;;;;;;2.55;1.02;;;11.10;99.90;;;;;;5074430;28;20025;-70
2023/12/21 00:52:56;;;;;;;2.90;1.35;;;11.00;99.90;;;;;;5074218;28;20434;-69
2023/12/21 00:55:22;;;;;;;4.53;1.98;;;11.10;99.90;;;;;;5074123;28;20031;-70
2023/12/21 00:57:48;;;;;;;2.05;1.45;;;11.00;99.90;;;;;;5074136;28;20094;-70
2023/12/21 01:00:14;;;;;;;0.00;0.00;;;11.10;99.90;;;;;;5074205;28;20024;-69
2023/12/21 01:02:40;;;;;;;1.05;0.95;;;11.10;99.90;;;;;;5073884;28;20028;-70
2023/12/21 01:05:06;;;;;;;7.72;2.58;;;11.00;99.90;;;;;;5073848;28;20095;-70
2023/12/21 01:07:32;;;;;;;6.35;1.90;;;11.10;99.90;;;;;;5073656;28;20040;-71
2023/12/21 01:09:58;;;;;;;16.45;2.45;;;11.10;99.90;;;;;;5073953;28;20032;-70
2023/12/21 01:12:24;;;;;;;6.88;3.05;;;11.20;99.90;;;;;;5073665;28;20058;-70
2023/12/21 01:14:50;;;;;;;0.80;0.77;;;11.10;99.90;;;;;;5072541;28;20040;-69
2023/12/21 01:17:17;;;;;;;4.40;1.77;;;11.20;99.90;;;;;;5064928;28;20079;-69
2023/12/21 01:19:43;;;;;;;6.00;2.10;;;11.20;99.90;;;;;;5054064;28;20420;-68
2023/12/21 01:22:09;;;;;;;2.83;1.70;;;11.20;99.90;;;;;;5073115;28;20025;-69
2023/12/21 01:24:34;;;;;;;4.82;1.55;;;11.20;99.90;;;;;;5072423;28;20047;-69
2023/12/21 01:27:00;;;;;;;1.80;0.52;;;11.20;99.90;;;;;;5072059;28;20416;-69
2023/12/21 01:29:27;;;;;;;0.80;0.55;;;11.20;99.90;;;;;;5072371;28;20017;-68
2023/12/21 01:31:53;;;;;;;8.95;2.42;;;11.30;99.90;;;;;;5071016;22;20044;-70
2023/12/21 01:34:19;;;;;;;2.80;0.85;;;11.20;99.90;;;;;;5073423;28;20496;-68
2023/12/21 01:36:44;;;;;;;4.05;0.93;;;11.30;99.90;;;;;;5073303;28;20036;-70
2023/12/21 01:39:10;;;;;;;8.73;0.85;;;11.20;99.90;;;;;;5089113;28;20430;-69
2023/12/21 01:41:36;;;;;;;11.65;2.28;;;11.10;99.90;;;;;;5069851;28;20028;-70
2023/12/21 01:44:02;;;;;;;0.08;0.08;;;11.20;99.90;;;;;;5073458;28;20032;-69
2023/12/21 01:46:29;;;;;;;0.93;0.80;;;11.20;99.90;;;;;;5072561;28;20036;-70
2023/12/21 01:48:55;;;;;;;8.93;0.65;;;11.20;99.90;;;;;;5073335;28;20498;-70
2023/12/21 01:51:21;;;;;;;6.65;1.05;;;11.10;99.90;;;;;;5072999;28;20038;-70
2023/12/21 01:53:51;;;;;;;13.80;1.80;;;11.20;99.90;;;;;;5073348;28;20028;-68
2023/12/21 01:56:20;;;;;;;15.38;2.22;;;11.20;99.90;;;;;;5088631;28;20025;-69
2023/12/21 01:58:49;;;;;;;10.43;2.58;;;11.20;99.90;;;;;;5088458;28;20037;-68
2023/12/21 02:01:17;;;;;;;9.02;2.60;;;11.20;99.90;;;;;;5088502;28;20461;-69
2023/12/21 02:03:44;;;;;;;0.30;0.30;;;11.20;99.90;;;;;;5073071;28;20485;-70
2023/12/21 02:06:10;;;;;;;0.63;0.55;;;11.10;99.90;;;;;;5071698;28;20452;-69
2023/12/21 02:08:36;;;;;;;3.22;0.80;;;11.10;99.90;;;;;;5072915;28;20040;-69
2023/12/21 02:11:08;;;;;;;1.58;0.93;;;11.20;99.90;;;;;;5073041;28;20035;-70
2023/12/21 02:13:33;;;;;;;5.85;0.40;;;11.20;99.90;;;;;;5072595;28;20021;-70
2023/12/21 02:16:11;;;;;;;3.83;1.40;;;11.20;99.90;;;;;;5071205;28;20043;-70
2023/12/21 02:18:37;;;;;;;3.22;1.75;;;11.20;99.90;;;;;;5072633;28;20104;-69
2023/12/21 02:21:03;;;;;;;3.60;2.13;;;11.30;99.90;;;;;;5073125;28;20020;-68
2023/12/21 02:23:36;;;;;;;4.53;1.60;;;11.20;99.90;;;;;;5072689;28;20115;-69
2023/12/21 02:26:02;;;;;;;0.47;0.45;;;11.20;99.90;;;;;;5063193;28;20067;-69
2023/12/21 02:28:28;;;;;;;1.30;0.65;;;11.20;99.90;;;;;;5068139;28;20393;-70
2023/12/21 02:30:54;;;;;;;2.47;0.93;;;11.20;99.90;;;;;;5072812;28;20081;-69
2023/12/21 02:33:20;;;;;;;11.75;2.65;;;11.20;99.90;;;;;;5072803;28;20412;-70
2023/12/21 02:35:46;;;;;;;2.40;1.40;;;11.20;99.90;;;;;;5066592;28;20370;-69
2023/12/21 02:38:12;;;;;;;8.23;2.28;;;11.30;99.90;;;;;;5080151;28;20029;-69
2023/12/21 02:40:38;;;;;;;4.32;0.63;;;11.30;99.90;;;;;;5071571;28;20391;-70
2023/12/21 02:43:04;;;;;;;8.75;2.42;;;11.40;99.90;;;;;;5087646;28;20040;-69
2023/12/21 02:45:29;;;;;;;0.10;0.10;;;11.30;99.90;;;;;;5088154;28;20029;-69
2023/12/21 02:47:55;;;;;;;7.28;1.85;;;11.30;99.90;;;;;;5088053;28;20389;-69
2023/12/21 02:50:21;;;;;;;16.48;1.80;;;11.30;99.90;;;;;;5072679;28;20071;-69
2023/12/21 02:52:48;;;;;;;7.53;0.82;;;11.30;99.90;;;;;;5072524;28;20050;-69
2023/12/21 02:55:14;;;;;;;17.02;4.28;;;11.30;99.90;;;;;;5072681;28;20060;-69
2023/12/21 02:57:39;;;;;;;2.95;0.68;;;11.30;99.90;;;;;;5072244;28;20048;-69
2023/12/21 03:00:06;;;;;;;1.88;0.98;;;11.30;99.90;;;;;;5072459;28;20083;-68
2023/12/21 03:02:32;;;;;;;5.50;1.98;;;11.40;99.90;;;;;;5087985;28;20381;-69
2023/12/21 03:04:58;;;;;;;11.50;1.80;;;11.30;99.90;;;;;;5072519;28;20074;-68
2023/12/21 03:07:23;;;;;;;1.13;1.08;;;11.30;99.90;;;;;;5072496;28;20052;-70
2023/12/21 03:09:49;;;;;;;1.05;0.47;;;11.30;99.90;;;;;;5072485;28;20021;-69
2023/12/21 03:12:15;;;;;;;13.73;2.20;;;11.30;99.90;;;;;;5071993;28;20033;-68
2023/12/21 03:14:41;;;;;;;2.28;0.40;;;11.30;99.90;;;;;;5072088;28;20877;-68
2023/12/21 03:17:07;;;;;;;6.75;2.13;;;11.40;99.90;;;;;;5072504;28;20024;-69
2023/12/21 03:19:33;;;;;;;3.78;1.38;;;11.30;99.90;;;;;;5072271;28;20110;-69
2023/12/21 03:21:59;;;;;;;2.65;0.65;;;11.40;99.90;;;;;;5072495;28;20021;-69
2023/12/21 03:24:25;;;;;;;4.68;1.30;;;11.40;99.90;;;;;;5072202;28;20043;-69
2023/12/21 03:26:51;;;;;;;0.45;0.45;;;11.40;99.90;;;;;;5073878;28;20032;-70
2023/12/21 03:29:18;;;;;;;15.25;2.60;;;11.40;99.90;;;;;;5075704;28;20178;-69
2023/12/21 03:31:43;;;;;;;14.27;2.67;;;11.40;99.90;;;;;;5075645;28;20036;-69
2023/12/21 03:34:09;;;;;;;7.82;1.27;;;11.40;99.90;;;;;;5091300;28;20024;-69
2023/12/21 03:36:35;;;;;;;2.05;1.70;;;11.50;99.90;;;;;;5075659;28;20033;-71
2023/12/21 03:39:01;;;;;;;1.35;0.80;;;11.50;99.90;;;;;;5075816;28;20107;-68
2023/12/21 03:41:27;;;;;;;0.40;0.40;;;11.40;99.90;;;;;;5075257;28;20039;-68
2023/12/21 03:43:52;;;;;;;6.97;1.25;;;11.50;99.90;;;;;;5075570;28;20021;-70
2023/12/21 03:46:18;;;;;;;11.75;1.75;;;11.50;99.90;;;;;;5062691;28;20052;-69
2023/12/21 03:48:45;;;;;;;1.30;0.35;;;11.40;99.90;;;;;;5073106;28;20032;-70
2023/12/21 03:51:11;;;;;;;17.17;2.55;;;11.50;99.90;;;;;;5075382;28;20031;-69
2023/12/21 03:53:36;;;;;;;4.75;2.35;;;11.40;99.90;;;;;;5075529;28;20115;-69
2023/12/21 03:56:02;;;;;;;8.63;2.70;;;11.40;99.90;;;;;;5074919;28;20024;-69
2023/12/21 03:58:28;;;;;;;9.15;2.28;;;11.40;99.90;;;;;;5064315;28;20041;-69
2023/12/21 04:00:54;;;;;;;3.75;1.67;;;11.40;99.90;;;;;;5070901;28;20571;-69
2023/12/21 04:03:20;;;;;;;0.52;0.52;;;11.40;99.90;;;;;;5075273;28;20032;-70
2023/12/21 04:05:45;;;;;;;1.45;1.17;;;11.40;99.90;;;;;;5060141;28;20025;-69
2023/12/21 04:08:11;;;;;;;21.58;1.65;;;11.50;99.90;;;;;;5075074;28;20477;-70
2023/12/21 04:10:38;;;;;;;3.05;1.42;;;11.50;99.90;;;;;;5090145;28;20039;-68
2023/12/21 04:13:03;;;;;;;4.75;2.63;;;11.50;99.90;;;;;;5075150;28;20351;-69
2023/12/21 04:15:29;;;;;;;11.98;2.55;;;11.60;99.90;;;;;;5074964;28;20023;-69
2023/12/21 04:17:55;;;;;;;4.25;1.25;;;11.60;99.90;;;;;;5075027;28;20501;-69
2023/12/21 04:20:21;;;;;;;2.53;1.42;;;11.60;99.90;;;;;;5075001;28;20489;-69
2023/12/21 04:22:47;;;;;;;1.90;0.90;;;11.60;99.90;;;;;;5074864;28;20029;-69
2023/12/21 04:25:12;;;;;;;15.73;2.75;;;11.60;99.90;;;;;;5060528;28;20020;-70
2023/12/21 04:27:39;;;;;;;2.78;0.90;;;11.60;99.90;;;;;;5074853;28;20049;-69
2023/12/21 04:30:05;;;;;;;0.98;0.65;;;11.60;99.90;;;;;;5074523;28;20031;-70
2023/12/21 04:32:31;;;;;;;17.02;2.95;;;11.60;99.90;;;;;;5074798;28;20063;-69
2023/12/21 04:34:57;;;;;;;0.35;0.25;;;11.60;99.90;;;;;;5074507;28;20056;-70
2023/12/21 04:37:23;;;;;;;3.33;0.85;;;11.60;99.90;;;;;;5073194;28;20078;-69
2023/12/21 04:39:49;;;;;;;11.52;1.90;;;11.60;99.90;;;;;;5089748;28;20041;-70
2023/12/21 04:42:15;;;;;;;0.80;0.52;;;11.60;99.90;;;;;;5090106;28;20059;-70
2023/12/21 04:44:41;;;;;;;2.40;1.65;;;11.50;99.90;;;;;;5074396;28;20024;-69
2023/12/21 04:47:10;;;;;;;6.03;1.58;;;11.50;99.90;;;;;;5074287;28;20036;-68
2023/12/21 04:49:36;;;;;;;1.33;0.60;;;11.60;99.90;;;;;;5074156;28;20074;-69
2023/12/21 04:52:03;;;;;;;3.67;0.93;;;11.60;99.90;;;;;;5100632;22;20044;-69
2023/12/21 04:54:29;;;;;;;5.60;1.95;;;11.60;99.90;;;;;;5093354;28;20024;-68
2023/12/21 04:56:55;;;;;;;16.85;2.47;;;11.50;99.90;;;;;;5092962;28;20084;-70
2023/12/21 04:59:21;;;;;;;2.20;0.82;;;11.50;99.90;;;;;;5092989;28;20101;-70
2023/12/21 05:01:52;;;;;;;5.97;1.80;;;11.60;99.90;;;;;;5094142;28;20027;-68
2023/12/21 05:04:18;;;;;;;3.60;1.25;;;11.60;99.90;;;;;;5093048;28;20381;-68
2023/12/21 05:06:44;;;;;;;13.02;1.25;;;11.60;99.90;;;;;;5094169;28;20024;-70
2023/12/21 05:09:11;;;;;;;3.88;1.55;;;11.60;99.90;;;;;;5093843;28;20044;-70
2023/12/21 05:11:38;;;;;;;3.95;1.50;;;11.60;99.90;;;;;;5094510;28;20099;-69
2023/12/21 05:14:04;;;;;;;3.15;1.30;;;11.60;99.90;;;;;;5092789;28;20452;-69
2023/12/21 05:16:30;;;;;;;0.38;0.28;;;11.60;99.90;;;;;;5093853;28;20048;-69
2023/12/21 05:18:56;;;;;;;3.33;0.50;;;11.60;99.90;;;;;;5092520;28;20055;-70
2023/12/21 05:21:23;;;;;;;4.47;1.20;;;11.70;99.90;;;;;;5094221;28;20544;-70
2023/12/21 05:23:49;;;;;;;10.23;2.55;;;11.60;99.90;;;;;;5093691;28;20016;-70
2023/12/21 05:26:16;;;;;;;0.55;0.55;;;11.70;99.90;;;;;;5093454;28;20513;-69
2023/12/21 05:28:42;;;;;;;0.75;0.70;;;11.70;99.90;;;;;;5080397;28;20127;-70
2023/12/21 05:31:11;;;;;;;3.55;1.38;;;11.70;99.90;;;;;;5093540;28;20111;-70
2023/12/21 05:33:39;;;;;;;2.58;0.90;;;11.70;99.90;;;;;;5093915;28;20046;-69
2023/12/21 05:36:05;;;;;;;5.82;1.55;;;11.70;99.90;;;;;;5093748;28;20532;-70
2023/12/21 05:38:30;;;;;;;0.10;0.10;;;11.80;99.90;;;;;;5093353;28;20035;-70
2023/12/21 05:40:56;;;;;;;2.05;0.88;;;11.80;99.90;;;;;;5092202;28;20025;-70
2023/12/21 05:43:22;;;;;;;7.85;1.33;;;11.80;99.90;;;;;;5092005;28;20028;-69
2023/12/21 05:45:49;;;;;;;6.82;2.35;;;11.70;99.90;;;;;;5093586;28;20020;-69
2023/12/21 05:48:15;;;;;;;6.20;1.83;;;11.80;99.90;;;;;;5093166;28;20096;-69
2023/12/21 05:50:41;;;;;;;1.88;1.13;;;11.80;99.90;;;;;;5092726;28;20029;-69
2023/12/21 05:53:07;;;;;;;4.85;1.02;;;11.80;99.90;;;;;;5091739;28;20024;-68
2023/12/21 05:55:33;;;;;;;4.38;1.63;;;11.80;99.90;;;;;;5093489;28;20358;-70
2023/12/21 05:57:59;;;;;;;5.68;1.77;;;11.80;99.90;;;;;;5093211;28;20460;-69
2023/12/21 06:00:26;;;;;;;1.70;1.15;;;11.80;99.90;;;;;;5093195;28;20036;-69
2023/12/21 06:02:51;;;;;;;4.50;1.35;;;11.80;99.90;;;;;;5093160;28;20016;-69
2023/12/21 06:05:17;;;;;;;6.93;1.02;;;11.80;99.90;;;;;;5091308;28;20070;-70
2023/12/21 06:07:43;;;;;;;5.72;1.40;;;11.80;99.90;;;;;;5090692;28;20030;-69
2023/12/21 06:10:10;;;;;;;2.50;0.75;;;11.80;99.90;;;;;;5081014;28;20044;-70
2023/12/21 06:12:36;;;;;;;0.57;0.32;;;11.80;99.90;;;;;;5092911;28;20039;-69
2023/12/21 06:15:04;;;;;;;0.57;0.30;;;11.90;99.90;;;;;;5093089;28;20532;-69
2023/12/21 06:17:30;;;;;;;13.88;2.85;;;11.80;99.90;;;;;;5092962;28;20031;-69
2023/12/21 06:19:56;;;;;;;0.98;0.85;;;11.90;99.90;;;;;;5092852;28;20024;-68
2023/12/21 06:22:22;;;;;;;9.63;2.05;;;11.90;99.90;;;;;;5074515;28;20461;-68
2023/12/21 06:24:49;;;;;;;2.95;0.77;;;11.90;99.90;;;;;;5093050;28;20036;-68
2023/12/21 06:27:16;;;;;;;2.53;2.10;;;11.90;99.90;;;;;;5092753;28;20481;-69
2023/12/21 06:29:42;;;;;;;5.93;2.08;;;11.90;99.90;;;;;;5093106;28;20024;-70
2023/12/21 06:32:08;;;;;;;3.40;0.57;;;11.90;99.90;;;;;;5093005;28;20032;-69
2023/12/21 06:34:34;;;;;;;3.75;1.15;;;11.90;99.90;;;;;;5092762;28;20111;-69
2023/12/21 06:37:01;;;;;;;2.63;1.40;;;11.90;99.90;;;;;;5092518;28;20027;-69
2023/12/21 06:39:26;;;;;;;12.43;1.35;;;11.90;99.90;;;;;;5092993;28;20413;-69
2023/12/21 06:41:53;;;;;;;1.85;0.17;;;11.90;99.90;;;;;;5092889;28;20062;-68
2023/12/21 06:44:18;;;;;;;5.47;0.85;;;12.00;99.90;;;;;;5082399;28;20096;-69
2023/12/21 06:46:44;;;;;;;0.40;0.40;;;12.00;99.90;;;;;;5087972;28;20123;-68
2023/12/21 06:49:11;;;;;;;2.20;2.08;;;12.00;99.90;;;;;;5085024;28;20180;-68
2023/12/21 06:51:37;;;;;;;1.52;0.40;;;12.00;99.90;;;;;;5092013;28;20043;-69
2023/12/21 06:54:04;;;;;;;5.55;1.38;;;12.00;99.90;;;;;;5077152;28;20037;-69
2023/12/21 06:56:30;;;;;;;4.43;1.15;;;12.00;99.90;;;;;;5090056;28;20073;-70
2023/12/21 06:58:56;;;;;;;9.93;2.67;;;12.10;99.90;;;;;;5092316;28;20032;-70
2023/12/21 07:01:28;;;;;;;0.80;0.50;;;12.10;99.90;;;;;;5095485;28;20024;-68
2023/12/21 07:03:55;;;;;;;0.38;0.30;;;12.10;99.90;;;;;;5096314;28;20028;-69
2023/12/21 07:06:21;;;;;;;3.50;1.55;;;12.20;99.90;;;;;;5096482;28;20081;-68
2023/12/21 07:08:47;;;;;;;4.68;1.92;;;12.10;99.90;;;;;;5095548;28;20115;-70
2023/12/21 07:11:13;;;;;;;2.13;0.60;;;12.20;99.90;;;;;;5095002;28;20067;-69
2023/12/21 07:13:39;;;;;;;0.17;0.13;;;12.10;99.90;;;;;;5096275;28;20024;-69
2023/12/21 07:16:06;;;;;;;1.25;0.52;;;12.20;99.90;;;;;;5096226;28;20031;-69
2023/12/21 07:18:31;;;;;;;2.30;0.80;;;12.30;99.90;;;;;;5094607;28;20016;-68
2023/12/21 07:20:57;;;;;;;0.50;0.50;;;12.30;99.90;;;;;;5096129;28;20032;-71
2023/12/21 07:23:23;;;;;;;2.83;2.00;;;12.30;99.90;;;;;;5096061;28;20093;-68
2023/12/21 07:25:49;;;;;;;2.53;0.75;;;12.30;99.90;;;;;;5082084;28;20048;-69
2023/12/21 07:28:17;;;;;;;0.70;0.63;;;12.30;99.90;;;;;;5095079;28;20500;-70
2023/12/21 07:30:43;;;;;;;12.10;1.67;;;12.30;99.90;;;;;;5095842;28;20052;-70
2023/12/21 07:33:10;;;;;;;1.08;0.65;;;12.30;99.90;;;;;;5096100;28;20055;-69
2023/12/21 07:35:38;;;;;;;2.22;0.63;;;12.30;99.90;;;;;;5095871;28;20032;-69
2023/12/21 07:38:03;;;;;;;8.48;0.35;;;12.30;99.90;;;;;;5095961;28;20104;-69
2023/12/21 07:40:29;;;;;;;3.58;1.60;;;12.30;99.90;;;;;;5095773;28;20114;-69
2023/12/21 07:42:55;;;;;;;0.65;0.32;;;12.30;99.90;;;;;;5096110;28;20020;-69
2023/12/21 07:45:21;;;;;;;3.15;0.90;;;12.30;99.90;;;;;;5095518;28;20093;-69
2023/12/21 07:47:48;;;;;;;6.32;0.60;;;12.20;99.90;;;;;;5095480;28;20032;-69
2023/12/21 07:50:14;;;;;;;0.10;0.10;;;12.20;99.90;;;;;;5094423;28;20540;-67
2023/12/21 07:52:40;;;;;;;2.85;0.95;;;12.20;99.90;;;;;;5095583;28;20107;-71
2023/12/21 07:55:07;;;;;;;6.55;1.13;;;12.20;99.90;;;;;;5094511;28;20028;-68
2023/12/21 07:57:33;;;;;;;3.55;1.25;;;12.30;99.90;;;;;;5095455;28;20028;-70
2023/12/21 07:59:59;;;;;;;1.95;0.52;;;12.20;99.90;;;;;;5094389;28;20024;-70
2023/12/21 08:02:25;;;;;;;7.28;0.98;;;12.30;99.90;;;;;;5080898;28;20024;-71
2023/12/21 08:04:51;;;;;;;3.55;0.68;;;12.30;99.90;;;;;;5095421;28;20523;-70
2023/12/21 08:07:17;;;;;;;0.30;0.30;;;12.30;99.90;;;;;;5095402;28;20016;-70
2023/12/21 08:09:42;;;;;;;6.28;1.23;;;12.30;99.90;;;;;;5095213;28;20028;-70
2023/12/21 08:12:09;;;;;;;1.45;0.52;;;12.30;99.90;;;;;;5093456;28;20059;-70
2023/12/21 08:14:37;;;;;;;0.73;0.50;;;12.30;99.90;;;;;;5093822;28;20427;-70
2023/12/21 08:17:09;;;;;;;6.05;1.42;;;12.20;99.90;;;;;;5093704;28;20032;-68
2023/12/21 08:19:36;;;;;;;2.10;0.57;;;12.20;99.90;;;;;;5095062;28;20028;-70
2023/12/21 08:22:02;;;;;;;2.05;0.73;;;12.20;99.90;;;;;;5095159;28;20059;-68
2023/12/21 08:24:27;;;;;;;1.58;0.90;;;12.30;99.90;;;;;;5094951;28;20465;-69
2023/12/21 08:26:54;;;;;;;3.25;0.90;;;12.30;99.90;;;;;;5094466;28;20027;-69
2023/12/21 08:29:20;;;;;;;2.42;0.98;;;12.30;99.90;;;;;;5094655;28;20036;-71
2023/12/21 08:31:45;;;;;;;0.43;0.40;;;12.30;99.90;;;;;;5093804;28;20016;-69
2023/12/21 08:34:12;;;;;;;4.10;1.45;;;12.40;99.90;;;;;;5094533;28;20438;-69
2023/12/21 08:36:41;;;;;;;4.93;1.50;;;12.40;99.90;;;;;;5094151;28;20472;-70
2023/12/21 08:39:07;;;;;;;3.40;1.90;;;12.50;99.90;;;;;;5094596;28;20084;-69
2023/12/21 08:41:33;;;;;;;2.45;1.33;;;12.50;99.90;;;;;;5094454;28;20016;-70
2023/12/21 08:43:59;;;;;;;3.70;2.53;;;12.50;99.90;;;;;;5094692;28;20144;-70
2023/12/21 08:46:25;;;;;;;9.48;2.90;;;12.50;99.90;;;;;;5094368;28;20114;-70
2023/12/21 08:48:51;;;;;;;4.40;1.05;;;12.40;99.90;;;;;;5094386;28;20043;-70
2023/12/21 08:51:17;;;;;;;5.25;0.70;;;12.50;99.90;;;;;;5094383;28;20032;-70
2023/12/21 08:53:44;;;;;;;1.75;1.08;;;12.40;99.90;;;;;;5093402;28;20035;-70
2023/12/21 08:56:10;;;;;;;0.82;0.38;;;12.40;99.90;;;;;;5094232;28;20028;-70
2023/12/21 08:58:36;;;;;;;10.88;1.58;;;12.50;99.90;;;;;;5094454;28;20116;-69
2023/12/21 09:01:02;;;;;;;2.13;0.80;;;12.50;99.90;;;;;;5092746;28;20054;-70
2023/12/21 09:03:28;;;;;;;1.55;0.65;;;12.50;99.90;;;;;;5094508;28;20534;-70
2023/12/21 09:05:54;;;;;;;4.75;0.40;;;12.50;99.90;;;;;;5093921;28;20111;-69
2023/12/21 09:08:20;;;;;;;0.70;0.45;;;12.50;99.90;;;;;;5094290;28;20035;-70
2023/12/21 09:10:45;;;;;;;2.20;0.75;;;12.50;99.90;;;;;;5092945;28;20112;-70
2023/12/21 09:13:11;;;;;;;0.20;0.20;;;12.50;99.90;;;;;;5094208;28;20441;-70
2023/12/21 09:15:37;;;;;;;4.13;1.20;;;12.60;99.90;;;;;;5093923;28;20415;-70
2023/12/21 09:18:05;;;;;;;4.70;0.65;;;12.60;99.90;;;;;;5092587;28;20430;-70
2023/12/21 09:20:31;;;;;;;1.33;0.63;;;12.60;99.90;;;;;;5093959;28;20511;-70
2023/12/21 09:22:56;;;;;;;1.02;0.68;;;12.60;99.90;;;;;;5092098;28;20059;-70
2023/12/21 09:25:22;;;;;;;1.90;0.50;;;12.60;99.90;;;;;;5093190;28;20023;-69
2023/12/21 09:27:48;;;;;;;2.42;1.15;;;12.60;99.90;;;;;;5092580;28;20076;-69
2023/12/21 09:30:16;;;;;;;2.55;0.60;;;12.60;99.90;;;;;;5092466;28;20386;-69
2023/12/21 09:32:42;;;;;;;1.48;0.47;;;12.60;99.90;;;;;;5093621;28;20032;-69
2023/12/21 09:35:09;;;;;;;1.70;0.95;;;12.70;99.90;;;;;;5093732;28;20076;-68
2023/12/21 09:37:35;;;;;;;0.90;0.40;;;12.70;99.90;;;;;;5092492;28;20107;-70
2023/12/21 09:40:02;;;;;;;2.28;1.05;;;12.80;99.90;;;;;;5092489;28;20039;-68
2023/12/21 09:42:29;;;;;;;4.97;0.50;;;12.70;99.90;;;;;;5093821;28;20373;-69
2023/12/21 09:44:55;;;;;;;2.90;1.17;;;12.70;99.90;;;;;;5091991;28;20040;-68
2023/12/21 09:47:23;;;;;;;1.35;1.05;;;12.80;99.90;;;;;;5093305;28;20084;-69
2023/12/21 09:49:54;;;;;;;0.90;0.38;;;12.80;99.90;;;;;;5093269;28;20058;-69
2023/12/21 09:52:20;;;;;;;1.50;0.70;;;12.80;99.90;;;;;;5093201;28;20119;-68
2023/12/21 09:54:50;;;;;;;6.90;0.82;;;12.80;99.90;;;;;;5093347;28;20032;-69
2023/12/21 09:57:16;;;;;;;5.78;1.45;;;12.80;99.90;;;;;;5092380;28;20024;-69
2023/12/21 09:59:42;;;;;;;1.25;0.30;;;12.90;99.90;;;;;;5091780;28;20035;-70
2023/12/21 10:02:13;;;;;;;5.88;0.85;;;12.90;99.90;;;;;;5093185;28;20034;-70
2023/12/21 10:04:46;;;;;;;1.15;0.50;;;12.90;99.90;;;;;;5075148;28;20461;-69
2023/12/21 10:07:12;;;;;;;3.83;0.80;;;12.80;99.90;;;;;;5093174;28;20055;-68
2023/12/21 10:09:38;;;;;;;0.55;0.43;;;12.90;99.90;;;;;;5093329;28;20024;-69
2023/12/21 10:12:06;;;;;;;4.85;0.90;;;12.90;99.90;;;;;;5093202;28;20024;-69
2023/12/21 10:14:32;;;;;;;3.70;1.05;;;12.90;99.90;;;;;;5093104;28;20036;-70
2023/12/21 10:17:00;;;;;;;4.78;0.75;;;12.90;99.90;;;;;;5092128;28;20511;-69
2023/12/21 10:19:26;;;;;;;2.30;0.45;;;12.90;99.90;;;;;;5092965;28;20031;-69
2023/12/21 10:21:53;;;;;;;0.88;0.80;;;13.00;99.90;;;;;;5093651;28;20454;-70
2023/12/21 10:24:19;;;;;;;0.93;0.38;;;13.10;99.90;;;;;;5093048;28;20024;-69
2023/12/21 10:26:47;;;;;;;2.75;0.22;;;13.10;99.90;;;;;;5074943;28;20028;-71
2023/12/21 10:29:17;;;;;;;19.80;2.58;;;13.10;99.90;;;;;;5092993;28;20036;-69
2023/12/21 10:31:48;;;;;;;0.73;0.73;;;13.20;99.90;;;;;;5091865;28;20024;-70
2023/12/21 10:34:15;;;;;;;8.57;0.73;;;13.30;99.90;;;;;;5092739;28;20032;-70
2023/12/21 10:36:45;;;;;;;0.35;0.35;;;13.30;99.90;;;;;;5096730;28;20035;-69
2023/12/21 10:39:12;;;;;;;3.95;1.02;;;13.30;99.90;;;;;;5097216;28;20415;-70
2023/12/21 10:41:44;;;;;;;3.03;0.20;;;13.30;99.90;;;;;;5096637;28;20047;-70
2023/12/21 10:44:15;;;;;;;1.98;0.60;;;13.20;99.90;;;;;;5096921;28;20032;-70
2023/12/21 10:46:41;;;;;;;6.90;0.43;;;13.20;99.90;;;;;;5097163;28;20085;-70
2023/12/21 10:49:10;;;;;;;8.18;0.65;;;13.00;99.90;;;;;;5096821;28;20036;-69
2023/12/21 10:51:39;;;;;;;0.55;0.28;;;13.00;99.90;;;;;;5096992;28;20123;-70
2023/12/21 10:54:08;;;;;;;3.20;0.75;;;13.00;99.90;;;;;;5095242;28;20028;-68
2023/12/21 10:56:39;;;;;;;3.53;0.55;;;12.90;99.90;;;;;;5096739;28;20043;-69
2023/12/21 10:59:08;;;;;;;0.30;0.30;;;12.90;99.90;;;;;;5095584;28;20469;-71
2023/12/21 11:01:35;;;;;;;3.70;0.95;;;12.90;99.90;;;;;;5096933;28;20055;-70
2023/12/21 11:04:03;;;;;;;0.30;0.30;;;12.90;99.90;;;;;;5096358;28;20396;-70
2023/12/21 11:06:31;;;;;;;1.50;0.63;;;12.80;99.90;;;;;;5096635;28;20020;-70
2023/12/21 11:08:58;;;;;;;1.77;0.40;;;12.90;99.90;;;;;;5096572;28;20032;-70
2023/12/21 11:11:26;;;;;;;0.10;0.10;;;12.80;99.90;;;;;;5096125;28;20095;-70
2023/12/21 11:13:56;;;;;;;0.10;0.10;;;12.80;99.90;;;;;;5096321;28;20456;-71
2023/12/21 11:16:42;;;;;;;1.70;0.40;;;12.90;99.90;;;;;;5095037;28;20484;-68
2023/12/21 11:19:11;;;;;;;0.35;0.35;;;12.90;99.90;;;;;;5096427;28;20032;-70
2023/12/21 11:21:39;;;;;;;0.00;0.00;;;12.90;99.90;;;;;;5096228;28;20032;-69
2023/12/21 11:24:05;;;;;;;3.40;0.57;;;13.00;99.90;;;;;;5096284;28;20032;-70
2023/12/21 11:26:31;;;;;;;0.22;0.22;;;13.00;99.90;;;;;;5096001;28;20047;-70
2023/12/21 11:29:07;;;;;;;0.20;0.20;;;13.10;99.90;;;;;;5096217;28;20078;-70
2023/12/21 11:31:40;;;;;;;0.35;0.35;;;13.10;99.90;;;;;;5096176;28;20077;-69
2023/12/21 11:34:14;;;;;;;0.50;0.40;;;13.10;99.90;;;;;;5095980;28;20097;-69
2023/12/21 11:36:43;;;;;;;3.08;0.60;;;13.10;99.90;;;;;;5095893;28;20035;-69
2023/12/21 11:39:12;;;;;;;1.70;0.50;;;13.10;99.90;;;;;;5095835;28;20020;-70
2023/12/21 11:41:55;;;;;;;19.73;1.20;;;13.20;99.90;;;;;;5094261;28;20032;-70
2023/12/21 11:44:21;;;;;;;6.85;0.30;;;13.20;99.90;;;;;;5095834;28;20032;-69
2023/12/21 11:46:47;;;;;;;2.50;0.38;;;13.10;99.90;;;;;;5094695;28;20096;-69
2023/12/21 11:49:26;;;;;;;0.50;0.50;;;13.20;99.90;;;;;;5095603;28;20115;-70
2023/12/21 11:51:53;;;;;;;0.20;0.20;;;13.20;99.90;;;;;;5096522;28;20028;-70
2023/12/21 11:54:23;;;;;;;1.33;0.47;;;13.20;99.90;;;;;;5093950;28;20023;-70
2023/12/21 11:56:50;;;;;;;3.55;1.45;;;13.10;99.90;;;;;;5095461;28;20085;-69
2023/12/21 11:59:16;;;;;;;0.20;0.20;;;13.10;99.90;;;;;;5094372;28;20012;-69
2023/12/21 12:01:47;;;;;;;5.15;0.95;;;13.20;99.90;;;;;;5095347;28;20031;-71
2023/12/21 12:04:15;;;;;;;0.25;0.20;;;13.10;99.90;;;;;;5077938;28;20476;-69
2023/12/21 12:06:46;;;;;;;2.45;0.40;;;13.00;99.90;;;;;;5094108;28;20043;-69
2023/12/21 12:09:13;;;;;;;1.20;0.60;;;13.00;99.90;;;;;;5094921;28;20032;-69
2023/12/21 12:11:39;;;;;;;0.82;0.52;;;13.00;99.90;;;;;;5095174;28;20029;-69
2023/12/21 12:14:08;;;;;;;0.68;0.30;;;13.10;99.90;;;;;;5095355;28;20105;-69
2023/12/21 12:16:34;;;;;;;1.67;0.60;;;13.00;99.90;;;;;;5095044;28;20020;-70
2023/12/21 12:19:00;;;;;;;3.08;0.80;;;13.00;99.90;;;;;;5094069;28;20081;-71
2023/12/21 12:21:26;;;;;;;1.17;0.70;;;13.10;99.90;;;;;;5094974;28;20055;-71
2023/12/21 12:23:53;;;;;;;1.08;0.63;;;13.20;99.90;;;;;;5094754;28;20099;-69
2023/12/21 12:26:19;;;;;;;9.48;0.40;;;13.20;99.90;;;;;;5094873;28;20528;-70
2023/12/21 12:28:48;;;;;;;4.38;1.08;;;13.10;99.90;;;;;;5094938;28;20119;-69
2023/12/21 12:31:15;;;;;;;2.80;0.88;;;13.10;99.90;;;;;;5094914;28;20032;-70
2023/12/21 12:33:41;;;;;;;1.13;0.60;;;13.10;99.90;;;;;;5094691;28;20054;-71
2023/12/21 12:36:07;;;;;;;6.38;0.77;;;13.10;99.90;;;;;;5094788;28;20031;-70
2023/12/21 12:38:34;;;;;;;0.73;0.70;;;13.00;99.90;;;;;;5094483;28;20024;-71
2023/12/21 12:41:01;;;;;;;0.80;0.80;;;13.00;99.90;;;;;;5094730;28;20024;-70
2023/12/21 12:43:30;;;;;;;2.65;1.05;;;13.00;99.90;;;;;;5093199;28;20109;-71